Time;durP1;ratioP1;P1;durP2;ratioP2;P2;SDS_P1;SDS_P2;PMS_P1;PMS_P2;Temp;Humidity;BMP_temperature;BMP_pressure;BME280_temperature;BME280_humidity;BME280_pressure;Samples;Min_cycle;Max_cycle;Signal;HPM_P1;HPM_P2
2022/10/16 00:00:06;;;;;;;8.25;5.85;;;11.10;83.80;;;;;;1872805;77;21162;-57
2022/10/16 00:02:35;;;;;;;9.48;5.80;;;11.00;83.90;;;;;;1872871;77;21013;-57
2022/10/16 00:05:04;;;;;;;8.85;6.30;;;11.10;83.80;;;;;;1872826;77;21060;-57
2022/10/16 00:07:33;;;;;;;10.03;5.08;;;11.00;83.50;;;;;;1872749;77;21045;-56
2022/10/16 00:10:02;;;;;;;15.85;5.62;;;11.00;83.90;;;;;;1872774;77;21029;-57
2022/10/16 00:12:32;;;;;;;9.95;6.15;;;11.10;84.10;;;;;;1872883;76;21093;-57
2022/10/16 00:15:01;;;;;;;9.65;6.45;;;11.10;83.20;;;;;;1872919;77;21021;-57
2022/10/16 00:17:30;;;;;;;7.97;5.40;;;11.00;82.90;;;;;;1872867;76;21045;-56
2022/10/16 00:20:00;;;;;;;12.18;6.00;;;11.00;82.60;;;;;;1872909;77;21028;-57
2022/10/16 00:22:29;;;;;;;9.50;5.22;;;11.00;82.10;;;;;;1872878;77;21116;-57
2022/10/16 00:24:58;;;;;;;12.35;6.83;;;10.90;81.70;;;;;;1872872;77;21155;-57
2022/10/16 00:27:27;;;;;;;8.35;5.25;;;10.80;81.50;;;;;;1872730;75;21041;-57
2022/10/16 00:29:56;;;;;;;7.85;5.67;;;10.80;81.70;;;;;;1872734;77;21468;-57
2022/10/16 00:32:25;;;;;;;11.10;5.95;;;10.70;82.20;;;;;;1872891;77;21087;-57
2022/10/16 00:34:55;;;;;;;8.63;5.87;;;10.80;82.80;;;;;;1872830;75;21186;-57
2022/10/16 00:37:24;;;;;;;12.23;6.00;;;10.80;83.20;;;;;;1872797;77;21041;-56
2022/10/16 00:39:53;;;;;;;11.22;5.95;;;10.90;83.60;;;;;;1872814;75;21018;-57
2022/10/16 00:42:23;;;;;;;8.43;6.05;;;10.90;83.60;;;;;;1873074;76;21092;-57
2022/10/16 00:44:56;;;;;;;8.08;6.17;;;10.90;83.00;;;;;;1872746;77;21021;-56
2022/10/16 00:47:40;;;;;;;8.50;5.65;;;10.90;82.10;;;;;;1872791;77;20997;-56
2022/10/16 00:50:21;;;;;;;9.45;5.70;;;10.90;82.60;;;;;;1871927;76;21041;-57
2022/10/16 00:52:52;;;;;;;13.10;6.62;;;10.90;82.70;;;;;;1872438;76;21029;-56
2022/10/16 00:55:21;;;;;;;8.85;5.60;;;10.90;82.90;;;;;;1872916;77;21009;-57
2022/10/16 00:57:52;;;;;;;7.60;6.08;;;10.90;83.10;;;;;;1872875;77;21111;-57
2022/10/16 01:00:24;;;;;;;8.13;5.87;;;10.90;83.20;;;;;;1873054;77;21093;-57
2022/10/16 01:02:58;;;;;;;8.83;6.55;;;10.90;83.10;;;;;;1872747;77;21133;-57
2022/10/16 01:05:33;;;;;;;10.68;6.05;;;10.90;82.70;;;;;;1872642;76;21126;-56
2022/10/16 01:08:11;;;;;;;8.55;5.92;;;10.90;82.30;;;;;;1871130;76;21025;-56
2022/10/16 01:10:54;;;;;;;11.10;5.03;;;10.80;81.90;;;;;;1872626;76;21483;-57
2022/10/16 01:13:29;;;;;;;7.45;5.65;;;10.80;81.60;;;;;;1872641;76;21542;-56
2022/10/16 01:16:06;;;;;;;7.60;5.40;;;10.70;81.80;;;;;;1872165;76;21495;-57
2022/10/16 01:18:44;;;;;;;8.23;5.37;;;10.70;82.50;;;;;;1872911;77;21017;-56
2022/10/16 01:21:25;;;;;;;14.50;5.65;;;10.70;82.50;;;;;;1872787;77;21046;-57
2022/10/16 01:24:20;;;;;;;8.13;4.87;;;10.70;82.50;;;;;;1872785;77;21025;-57
2022/10/16 01:27:19;;;;;;;7.45;5.05;;;10.70;82.50;;;;;;1871959;76;21022;-56
2022/10/16 01:29:56;;;;;;;5.92;4.92;;;10.70;82.70;;;;;;1872611;76;21113;-56
2022/10/16 01:32:40;;;;;;;6.55;4.65;;;10.80;83.00;;;;;;1872468;76;21120;-57
2022/10/16 01:35:25;;;;;;;7.20;5.40;;;10.80;82.30;;;;;;1870741;75;21615;-55
2022/10/16 01:38:15;;;;;;;8.08;5.17;;;10.80;82.90;;;;;;1873110;77;21049;-57
2022/10/16 01:40:47;;;;;;;7.65;5.25;;;10.80;82.70;;;;;;1872545;77;21001;-57
2022/10/16 01:43:19;;;;;;;11.33;5.78;;;10.80;82.30;;;;;;1872731;77;21464;-57
2022/10/16 01:45:49;;;;;;;9.13;5.67;;;10.80;83.30;;;;;;1872829;77;21408;-57
2022/10/16 01:48:24;;;;;;;12.00;6.00;;;10.80;82.80;;;;;;1872692;77;21041;-56
2022/10/16 01:50:58;;;;;;;10.50;5.33;;;10.80;82.50;;;;;;1872934;76;21147;-57
2022/10/16 01:53:27;;;;;;;6.03;5.03;;;10.80;82.60;;;;;;1872904;76;21468;-56
2022/10/16 01:55:58;;;;;;;6.58;5.15;;;10.80;82.70;;;;;;1872863;76;21010;-57
2022/10/16 01:58:33;;;;;;;6.70;5.10;;;10.80;83.00;;;;;;1872858;77;21095;-57
2022/10/16 02:01:00;;;;;;;9.03;5.00;;;10.80;83.30;;;;;;1872547;77;21058;-55
2022/10/16 02:03:30;;;;;;;5.45;4.75;;;10.90;84.10;;;;;;1872830;76;21017;-57
2022/10/16 02:06:00;;;;;;;7.42;4.95;;;10.90;83.50;;;;;;1872842;77;21052;-56
2022/10/16 02:08:31;;;;;;;7.58;4.65;;;10.90;83.30;;;;;;1872816;77;21452;-55
2022/10/16 02:11:02;;;;;;;6.97;5.12;;;10.90;83.30;;;;;;1872832;76;21017;-57
2022/10/16 02:13:51;;;;;;;6.62;5.05;;;10.90;83.30;;;;;;1872777;77;21028;-57
2022/10/16 02:16:21;;;;;;;6.67;4.92;;;10.90;83.10;;;;;;1871631;75;21143;-56
2022/10/16 02:18:50;;;;;;;8.20;4.65;;;10.80;83.20;;;;;;1872800;77;21014;-56
2022/10/16 02:21:22;;;;;;;12.18;5.15;;;10.80;83.30;;;;;;1873032;77;21052;-56
2022/10/16 02:24:13;;;;;;;6.72;5.30;;;10.80;83.30;;;;;;1870225;77;21095;-57
2022/10/16 02:26:47;;;;;;;6.35;4.80;;;10.80;83.40;;;;;;1872839;77;21021;-57
2022/10/16 02:29:19;;;;;;;7.62;5.08;;;10.80;83.50;;;;;;1872943;77;21041;-56
2022/10/16 02:31:52;;;;;;;8.13;4.95;;;10.80;83.70;;;;;;1872877;76;21076;-57
2022/10/16 02:34:23;;;;;;;7.85;5.53;;;10.80;83.60;;;;;;1872783;76;21041;-57
2022/10/16 02:36:54;;;;;;;7.33;5.20;;;10.90;83.50;;;;;;1872960;75;21041;-57
2022/10/16 02:39:24;;;;;;;6.72;4.92;;;10.90;83.30;;;;;;1872862;77;21080;-56
2022/10/16 02:41:53;;;;;;;6.72;5.40;;;10.90;83.60;;;;;;1872813;77;21100;-56
2022/10/16 02:44:22;;;;;;;8.40;4.65;;;10.90;83.80;;;;;;1872995;77;21013;-56
2022/10/16 02:46:51;;;;;;;11.73;5.05;;;10.90;83.70;;;;;;1872759;76;21017;-56
2022/10/16 02:49:20;;;;;;;10.65;5.83;;;10.90;83.70;;;;;;1872755;77;21033;-55
2022/10/16 02:51:49;;;;;;;8.35;5.55;;;10.90;83.70;;;;;;1872889;76;21025;-57
2022/10/16 02:54:19;;;;;;;7.15;5.83;;;10.80;83.40;;;;;;1872878;77;21061;-56
2022/10/16 02:56:48;;;;;;;8.15;5.15;;;10.80;83.70;;;;;;1872916;76;20997;-57
2022/10/16 02:59:17;;;;;;;10.10;5.35;;;10.80;83.70;;;;;;1872767;77;21053;-57
2022/10/16 03:01:47;;;;;;;7.50;4.95;;;10.80;83.90;;;;;;1872974;76;21018;-57
2022/10/16 03:04:16;;;;;;;7.15;4.58;;;10.80;83.70;;;;;;1872776;76;21062;-56
2022/10/16 03:06:46;;;;;;;8.10;5.25;;;10.80;83.90;;;;;;1872765;76;21002;-56
2022/10/16 03:09:15;;;;;;;9.30;5.55;;;10.80;83.70;;;;;;1872838;77;21034;-56
2022/10/16 03:11:44;;;;;;;10.23;5.58;;;10.70;83.70;;;;;;1872811;76;21095;-57
2022/10/16 03:14:13;;;;;;;8.80;5.62;;;10.70;83.90;;;;;;1872959;77;21092;-56
2022/10/16 03:16:42;;;;;;;9.30;5.45;;;10.70;84.20;;;;;;1872906;76;21101;-57
2022/10/16 03:19:11;;;;;;;8.25;5.10;;;10.70;84.30;;;;;;1872790;77;21091;-57
2022/10/16 03:21:40;;;;;;;7.50;4.53;;;10.80;84.40;;;;;;1872796;77;21017;-55
2022/10/16 03:24:10;;;;;;;10.63;5.45;;;10.80;84.40;;;;;;1872782;77;21162;-57
2022/10/16 03:26:40;;;;;;;6.83;4.85;;;10.80;84.10;;;;;;1872093;76;21134;-56
2022/10/16 03:29:10;;;;;;;8.55;5.25;;;10.80;83.70;;;;;;1872728;77;21167;-57
2022/10/16 03:31:39;;;;;;;7.03;4.70;;;10.80;84.00;;;;;;1872788;75;21068;-57
2022/10/16 03:34:08;;;;;;;8.63;5.05;;;10.80;83.80;;;;;;1872823;77;21014;-57
2022/10/16 03:36:38;;;;;;;6.78;4.78;;;10.70;83.70;;;;;;1872896;75;21050;-57
2022/10/16 03:39:06;;;;;;;6.75;5.03;;;10.60;83.50;;;;;;1872780;76;20998;-57
2022/10/16 03:41:35;;;;;;;5.70;4.50;;;10.60;83.70;;;;;;1872836;77;21045;-56
2022/10/16 03:44:04;;;;;;;6.47;4.42;;;10.50;84.00;;;;;;1872772;77;21444;-57
2022/10/16 03:46:33;;;;;;;5.37;3.95;;;10.50;84.20;;;;;;1872771;77;21096;-57
2022/10/16 03:49:03;;;;;;;6.03;4.22;;;10.50;83.90;;;;;;1872728;77;21029;-56
2022/10/16 03:51:32;;;;;;;9.28;4.33;;;10.50;83.80;;;;;;1872724;77;21018;-57
2022/10/16 03:54:01;;;;;;;7.83;4.70;;;10.50;83.80;;;;;;1872776;77;21041;-56
2022/10/16 03:56:30;;;;;;;8.15;4.33;;;10.40;83.60;;;;;;1872772;76;21526;-56
2022/10/16 03:58:59;;;;;;;6.22;4.87;;;10.40;83.80;;;;;;1872777;75;21065;-57
2022/10/16 04:01:28;;;;;;;6.17;3.90;;;10.40;83.80;;;;;;1872789;77;21075;-56
2022/10/16 04:03:57;;;;;;;5.70;3.90;;;10.40;83.80;;;;;;1872772;77;21136;-57
2022/10/16 04:06:26;;;;;;;5.72;4.22;;;10.40;83.90;;;;;;1872741;76;21088;-57
2022/10/16 04:08:56;;;;;;;6.08;4.55;;;10.40;83.80;;;;;;1872696;77;21098;-56
2022/10/16 04:11:25;;;;;;;7.58;4.45;;;10.40;84.10;;;;;;1872875;77;21045;-56
2022/10/16 04:13:54;;;;;;;5.05;3.95;;;10.50;84.40;;;;;;1872906;76;20994;-56
2022/10/16 04:16:23;;;;;;;5.37;4.12;;;10.60;83.70;;;;;;1872773;77;21029;-56
2022/10/16 04:18:52;;;;;;;8.90;6.08;;;10.60;83.70;;;;;;1872665;77;21111;-56
2022/10/16 04:21:22;;;;;;;7.83;5.03;;;10.50;83.50;;;;;;1872763;77;21119;-56
2022/10/16 04:23:51;;;;;;;8.28;5.58;;;10.50;83.50;;;;;;1872734;77;21049;-56
2022/10/16 04:26:20;;;;;;;5.65;4.53;;;10.40;83.60;;;;;;1872761;76;21056;-56
2022/10/16 04:28:49;;;;;;;8.35;4.10;;;10.50;83.60;;;;;;1872686;77;21100;-57
2022/10/16 04:31:18;;;;;;;6.78;4.40;;;10.40;83.30;;;;;;1872850;77;21096;-56
2022/10/16 04:33:48;;;;;;;9.80;5.12;;;10.40;83.80;;;;;;1872721;77;20993;-56
2022/10/16 04:36:17;;;;;;;8.60;5.90;;;10.40;83.80;;;;;;1873865;76;21049;-56
2022/10/16 04:38:46;;;;;;;9.40;6.22;;;10.50;83.70;;;;;;1891465;76;21090;-55
2022/10/16 04:41:15;;;;;;;9.78;6.08;;;10.50;84.00;;;;;;1891608;76;21122;-56
2022/10/16 04:43:44;;;;;;;11.43;5.83;;;10.50;84.10;;;;;;1891407;76;20992;-56
2022/10/16 04:46:13;;;;;;;8.75;5.65;;;10.60;84.20;;;;;;1891416;76;21484;-56
2022/10/16 04:48:42;;;;;;;8.85;5.10;;;10.60;84.10;;;;;;1891391;76;21136;-55
2022/10/16 04:51:12;;;;;;;10.65;9.53;;;10.70;84.20;;;;;;1891603;76;21045;-56
2022/10/16 04:53:41;;;;;;;19.30;10.72;;;10.70;84.20;;;;;;1891408;76;21133;-56
2022/10/16 04:56:10;;;;;;;11.93;8.25;;;10.80;84.00;;;;;;1891489;76;21091;-56
2022/10/16 04:58:39;;;;;;;10.05;6.80;;;10.80;83.80;;;;;;1891530;76;21109;-57
2022/10/16 05:01:08;;;;;;;8.90;4.70;;;10.80;83.80;;;;;;1891568;76;21016;-56
2022/10/16 05:03:37;;;;;;;6.62;4.37;;;10.80;83.60;;;;;;1891460;76;21106;-56
2022/10/16 05:06:07;;;;;;;4.65;3.47;;;10.90;83.60;;;;;;1891460;76;21524;-56
2022/10/16 05:08:36;;;;;;;7.30;5.03;;;10.80;82.90;;;;;;1891669;75;21032;-56
2022/10/16 05:11:06;;;;;;;4.25;3.85;;;10.80;83.20;;;;;;1891578;76;21020;-56
2022/10/16 05:13:35;;;;;;;6.78;4.67;;;10.80;82.80;;;;;;1891487;76;21044;-56
2022/10/16 05:16:04;;;;;;;5.33;3.80;;;10.70;82.80;;;;;;1891586;76;21016;-57
2022/10/16 05:18:33;;;;;;;5.80;4.03;;;10.70;83.20;;;;;;1891429;75;21012;-56
2022/10/16 05:21:02;;;;;;;8.95;4.58;;;10.70;83.00;;;;;;1891543;76;21102;-56
2022/10/16 05:23:31;;;;;;;4.60;3.85;;;10.70;82.80;;;;;;1891374;76;21094;-56
2022/10/16 05:26:00;;;;;;;7.85;4.30;;;10.70;82.70;;;;;;1891342;76;21079;-57
2022/10/16 05:28:30;;;;;;;8.18;5.00;;;10.60;82.70;;;;;;1891371;76;21090;-56
2022/10/16 05:31:01;;;;;;;4.42;3.50;;;10.60;82.60;;;;;;1891501;76;21008;-57
2022/10/16 05:33:31;;;;;;;11.35;3.95;;;10.60;82.50;;;;;;1891391;75;21610;-55
2022/10/16 05:36:05;;;;;;;5.17;4.25;;;10.60;82.40;;;;;;1891455;76;21455;-57
2022/10/16 05:38:34;;;;;;;5.10;4.42;;;10.60;82.50;;;;;;1877895;75;21050;-57
2022/10/16 05:41:05;;;;;;;5.65;4.22;;;10.60;82.70;;;;;;1872786;77;21012;-56
2022/10/16 05:43:34;;;;;;;6.15;4.37;;;10.60;82.60;;;;;;1872669;77;21041;-57
2022/10/16 05:46:07;;;;;;;5.75;4.47;;;10.70;82.80;;;;;;1872639;77;21025;-56
2022/10/16 05:48:36;;;;;;;6.45;4.33;;;10.70;82.40;;;;;;1872628;77;21037;-54
2022/10/16 05:51:08;;;;;;;6.83;4.60;;;10.70;82.50;;;;;;1872780;77;21021;-56
2022/10/16 05:53:38;;;;;;;9.00;4.60;;;10.80;82.50;;;;;;1872687;77;21091;-57
2022/10/16 05:56:10;;;;;;;7.28;4.08;;;10.80;82.70;;;;;;1872838;76;21100;-56
2022/10/16 05:58:44;;;;;;;6.12;4.22;;;10.80;82.60;;;;;;1872637;77;21042;-57
2022/10/16 06:01:12;;;;;;;5.53;3.92;;;10.90;82.60;;;;;;1872192;77;21025;-56
2022/10/16 06:03:41;;;;;;;8.68;4.50;;;10.90;82.40;;;;;;1872426;76;21074;-56
2022/10/16 06:06:16;;;;;;;7.87;4.65;;;10.90;82.50;;;;;;1872682;77;21017;-56
2022/10/16 06:08:46;;;;;;;6.35;4.47;;;11.00;82.50;;;;;;1872614;76;21476;-57
2022/10/16 06:11:23;;;;;;;7.58;5.25;;;11.00;82.40;;;;;;1872661;77;21001;-56
2022/10/16 06:13:56;;;;;;;5.90;4.55;;;11.10;82.70;;;;;;1872870;77;21045;-56
2022/10/16 06:16:26;;;;;;;8.75;5.15;;;11.20;82.70;;;;;;1872936;77;21014;-56
2022/10/16 06:18:55;;;;;;;8.90;5.75;;;11.20;82.50;;;;;;1872799;77;21566;-56
2022/10/16 06:21:26;;;;;;;10.23;5.85;;;11.30;82.50;;;;;;1872893;77;21005;-56
2022/10/16 06:23:56;;;;;;;7.78;4.97;;;11.30;82.10;;;;;;1872806;75;21029;-56
2022/10/16 06:26:27;;;;;;;40.45;8.23;;;11.40;82.20;;;;;;1872803;77;21107;-56
2022/10/16 06:28:58;;;;;;;17.15;6.87;;;11.40;82.20;;;;;;1872752;77;21029;-56
2022/10/16 06:31:30;;;;;;;7.90;5.45;;;11.40;82.10;;;;;;1872719;77;21018;-57
2022/10/16 06:33:59;;;;;;;9.30;5.55;;;11.50;82.20;;;;;;1872884;77;21526;-56
2022/10/16 06:36:29;;;;;;;14.58;9.18;;;11.50;82.30;;;;;;1872694;76;21100;-56
2022/10/16 06:38:58;;;;;;;20.43;11.22;;;11.50;82.10;;;;;;1872882;75;21033;-55
2022/10/16 06:41:27;;;;;;;15.08;10.05;;;11.60;82.10;;;;;;1872859;77;21103;-56
2022/10/16 06:43:56;;;;;;;18.60;11.03;;;11.60;82.10;;;;;;1872869;77;20994;-56
2022/10/16 06:46:26;;;;;;;23.77;14.47;;;11.60;81.90;;;;;;1872792;76;21524;-56
2022/10/16 06:48:56;;;;;;;20.97;12.70;;;11.60;81.90;;;;;;1872710;77;21018;-56
2022/10/16 06:51:26;;;;;;;14.03;8.98;;;11.60;82.20;;;;;;1872942;76;21112;-56
2022/10/16 06:53:59;;;;;;;14.73;9.08;;;11.70;82.20;;;;;;1872874;77;21033;-56
2022/10/16 06:56:30;;;;;;;9.00;7.50;;;11.70;82.10;;;;;;1872991;75;21461;-57
2022/10/16 06:59:00;;;;;;;15.13;8.13;;;11.80;82.10;;;;;;1872883;77;21017;-56
2022/10/16 07:01:29;;;;;;;11.30;6.20;;;11.90;82.00;;;;;;1872788;76;21057;-57
2022/10/16 07:03:58;;;;;;;10.05;7.15;;;11.90;81.90;;;;;;1872887;76;21099;-56
2022/10/16 07:06:29;;;;;;;10.00;6.62;;;12.00;82.00;;;;;;1872838;77;21095;-57
2022/10/16 07:08:58;;;;;;;6.62;4.70;;;12.00;82.00;;;;;;1872914;77;21038;-56
2022/10/16 07:11:27;;;;;;;10.60;6.60;;;12.00;82.10;;;;;;1872788;77;21030;-56
2022/10/16 07:13:56;;;;;;;11.97;7.08;;;12.00;81.90;;;;;;1872767;77;20990;-57
2022/10/16 07:16:27;;;;;;;13.28;7.53;;;12.10;82.20;;;;;;1872821;76;21084;-56
2022/10/16 07:19:01;;;;;;;14.10;6.70;;;12.10;82.30;;;;;;1872910;77;21009;-56
2022/10/16 07:21:35;;;;;;;10.58;5.83;;;12.20;82.10;;;;;;1872882;77;21116;-56
2022/10/16 07:24:04;;;;;;;10.93;6.78;;;12.20;82.20;;;;;;1872783;77;21117;-56
2022/10/16 07:26:35;;;;;;;11.75;6.42;;;12.30;82.20;;;;;;1872827;77;21186;-56
2022/10/16 07:29:04;;;;;;;22.73;10.25;;;12.30;82.10;;;;;;1872692;77;21014;-57
2022/10/16 07:31:34;;;;;;;12.47;6.90;;;12.40;82.10;;;;;;1872735;75;21514;-56
2022/10/16 07:34:03;;;;;;;14.05;6.92;;;12.40;82.10;;;;;;1873044;77;21049;-57
2022/10/16 07:36:32;;;;;;;11.73;7.17;;;12.40;82.10;;;;;;1872779;77;21162;-57
2022/10/16 07:39:01;;;;;;;16.10;8.55;;;12.50;82.40;;;;;;1872759;75;21343;-56
2022/10/16 07:41:32;;;;;;;13.43;7.15;;;12.50;82.30;;;;;;1872796;77;21022;-57
2022/10/16 07:44:02;;;;;;;11.65;6.90;;;12.60;82.40;;;;;;1872903;75;21029;-58
2022/10/16 07:46:33;;;;;;;13.68;6.50;;;12.60;82.40;;;;;;1872650;77;21095;-57
2022/10/16 07:49:02;;;;;;;14.40;6.03;;;12.70;82.30;;;;;;1872740;76;21538;-57
2022/10/16 07:51:31;;;;;;;8.98;6.47;;;12.70;82.30;;;;;;1872796;76;21108;-58
2022/10/16 07:54:01;;;;;;;13.18;7.12;;;12.70;82.30;;;;;;1872934;77;21017;-58
2022/10/16 07:56:32;;;;;;;16.80;9.18;;;12.80;82.30;;;;;;1872805;77;21468;-57
2022/10/16 07:59:02;;;;;;;15.35;9.60;;;12.80;82.30;;;;;;1872840;77;21073;-57
2022/10/16 08:01:31;;;;;;;15.32;8.78;;;12.80;82.40;;;;;;1872804;77;21018;-58
2022/10/16 08:04:00;;;;;;;13.45;7.35;;;12.90;82.50;;;;;;1872812;77;21064;-57
2022/10/16 08:06:29;;;;;;;15.18;7.55;;;12.90;82.50;;;;;;1872837;77;21111;-57
2022/10/16 08:08:59;;;;;;;9.20;6.58;;;12.90;82.60;;;;;;1872694;77;21108;-58
2022/10/16 08:11:28;;;;;;;8.25;5.33;;;13.00;82.60;;;;;;1872695;77;21034;-57
2022/10/16 08:13:58;;;;;;;17.60;9.45;;;13.00;82.50;;;;;;1872870;77;21014;-56
2022/10/16 08:16:27;;;;;;;17.62;6.78;;;13.10;82.60;;;;;;1872709;77;21037;-56
2022/10/16 08:18:56;;;;;;;13.18;7.53;;;13.10;82.70;;;;;;1872687;77;21042;-56
2022/10/16 08:21:25;;;;;;;9.15;6.62;;;13.20;82.60;;;;;;1872847;77;21045;-56
2022/10/16 08:23:55;;;;;;;12.80;6.95;;;13.30;82.50;;;;;;1872836;77;21161;-57
2022/10/16 08:26:24;;;;;;;9.78;5.97;;;13.30;82.50;;;;;;1872731;77;21024;-56
2022/10/16 08:28:53;;;;;;;8.15;6.20;;;13.30;82.20;;;;;;1872616;77;21049;-56
2022/10/16 08:31:23;;;;;;;6.42;5.03;;;13.40;82.30;;;;;;1872905;75;21099;-56
2022/10/16 08:33:52;;;;;;;12.00;6.55;;;13.40;82.30;;;;;;1872790;77;21088;-57
2022/10/16 08:36:21;;;;;;;11.90;7.35;;;13.50;82.30;;;;;;1872802;77;21116;-56
2022/10/16 08:38:51;;;;;;;13.80;7.83;;;13.50;82.30;;;;;;1872807;75;21037;-56
2022/10/16 08:41:34;;;;;;;23.65;12.63;;;13.60;82.40;;;;;;1872675;77;21034;-56
2022/10/16 08:44:11;;;;;;;13.13;7.30;;;13.70;82.30;;;;;;1872302;77;21030;-56
2022/10/16 08:47:19;;;;;;;11.00;7.37;;;13.80;82.40;;;;;;1858153;77;21061;-56
2022/10/16 08:50:12;;;;;;;11.43;6.58;;;13.90;82.30;;;;;;1755456;80;21170;-57
2022/10/16 08:52:43;;;;;;;12.70;5.80;;;13.90;82.00;;;;;;1755431;82;21048;-57
2022/10/16 08:55:17;;;;;;;12.13;6.78;;;14.00;81.80;;;;;;1819824;77;21069;-57
2022/10/16 08:57:47;;;;;;;15.50;9.23;;;14.10;82.00;;;;;;1865300;77;21013;-57
2022/10/16 09:00:17;;;;;;;13.95;7.78;;;14.20;82.10;;;;;;1872688;76;21042;-57
2022/10/16 09:02:52;;;;;;;11.25;7.00;;;14.20;81.90;;;;;;1872931;77;20993;-57
2022/10/16 09:05:51;;;;;;;9.95;5.92;;;14.30;82.10;;;;;;1866446;77;21030;-57
2022/10/16 09:08:33;;;;;;;11.12;6.50;;;14.40;82.00;;;;;;1872768;77;21021;-58
2022/10/16 09:11:11;;;;;;;10.45;6.87;;;14.50;81.90;;;;;;1871487;77;21112;-58
2022/10/16 09:14:07;;;;;;;9.60;5.65;;;14.50;81.70;;;;;;1872456;77;21053;-58
2022/10/16 09:16:42;;;;;;;8.53;5.78;;;14.60;81.70;;;;;;1872784;77;21014;-57
2022/10/16 09:19:13;;;;;;;15.03;6.37;;;14.70;81.40;;;;;;1868450;77;21029;-58
2022/10/16 09:21:45;;;;;;;15.63;6.47;;;14.70;81.40;;;;;;1872787;77;21464;-58
2022/10/16 09:24:16;;;;;;;7.33;6.00;;;14.70;81.20;;;;;;1872841;77;21095;-58
2022/10/16 09:26:47;;;;;;;12.40;7.92;;;14.80;81.50;;;;;;1872723;77;21014;-58
2022/10/16 09:29:19;;;;;;;10.03;6.17;;;14.80;81.50;;;;;;1872637;77;21050;-57
2022/10/16 09:31:49;;;;;;;10.72;6.08;;;14.90;81.80;;;;;;1872945;77;21500;-58
2022/10/16 09:34:23;;;;;;;10.00;6.20;;;15.00;81.70;;;;;;1872761;77;21021;-57
2022/10/16 09:36:53;;;;;;;16.75;6.47;;;15.10;81.70;;;;;;1872147;77;21029;-57
2022/10/16 09:39:22;;;;;;;12.10;7.15;;;15.20;81.50;;;;;;1872756;75;21155;-57
2022/10/16 09:41:52;;;;;;;10.60;7.35;;;15.30;81.40;;;;;;1872693;77;21065;-57
2022/10/16 09:44:30;;;;;;;11.18;7.30;;;15.30;81.30;;;;;;1872772;77;21441;-58
2022/10/16 09:47:13;;;;;;;8.10;5.87;;;15.40;81.20;;;;;;1872842;77;21029;-58
2022/10/16 09:50:02;;;;;;;16.32;6.40;;;15.50;81.20;;;;;;1872726;77;21476;-58
2022/10/16 09:52:31;;;;;;;8.90;5.45;;;15.50;81.40;;;;;;1872707;77;21080;-58
2022/10/16 09:55:16;;;;;;;9.45;6.53;;;15.60;81.40;;;;;;1872788;77;21017;-58
2022/10/16 09:57:55;;;;;;;8.78;5.92;;;15.70;81.20;;;;;;1872945;77;21013;-56
2022/10/16 10:00:26;;;;;;;9.43;6.17;;;15.80;81.40;;;;;;1872720;77;20993;-57
2022/10/16 10:02:56;;;;;;;9.63;6.10;;;15.90;81.20;;;;;;1872705;77;21053;-57
2022/10/16 10:05:28;;;;;;;8.93;5.80;;;16.00;81.10;;;;;;1872754;77;21075;-56
2022/10/16 10:07:59;;;;;;;7.60;5.12;;;16.10;80.90;;;;;;1872713;77;21034;-57
2022/10/16 10:10:30;;;;;;;15.78;8.78;;;16.20;81.10;;;;;;1872538;76;21123;-57
2022/10/16 10:13:00;;;;;;;8.93;7.75;;;16.30;80.80;;;;;;1873067;77;21041;-57
2022/10/16 10:15:31;;;;;;;12.50;6.22;;;16.40;80.70;;;;;;1872926;77;21107;-56
2022/10/16 10:18:03;;;;;;;8.28;5.65;;;16.50;80.60;;;;;;1872835;76;21030;-57
2022/10/16 10:20:34;;;;;;;10.18;6.53;;;16.50;80.80;;;;;;1872982;75;21041;-57
2022/10/16 10:23:23;;;;;;;13.60;9.18;;;16.50;80.60;;;;;;1872939;76;21139;-57
2022/10/16 10:25:58;;;;;;;6.92;6.03;;;16.50;80.60;;;;;;1873013;76;21045;-57
2022/10/16 10:28:30;;;;;;;10.48;6.90;;;16.50;80.90;;;;;;1872329;77;21061;-57
2022/10/16 10:31:17;;;;;;;8.35;6.12;;;16.50;80.80;;;;;;1872769;77;21077;-57
2022/10/16 10:33:52;;;;;;;12.80;6.40;;;16.60;80.90;;;;;;1872592;76;21061;-57
2022/10/16 10:36:36;;;;;;;16.45;6.10;;;16.60;81.10;;;;;;1873018;76;21096;-57
2022/10/16 10:39:23;;;;;;;8.75;5.60;;;16.70;81.10;;;;;;1872997;77;21049;-57
2022/10/16 10:42:04;;;;;;;8.98;5.42;;;16.90;80.80;;;;;;1872887;75;21106;-57
2022/10/16 10:44:57;;;;;;;9.08;5.85;;;17.00;80.50;;;;;;1872839;77;21025;-57
2022/10/16 10:47:38;;;;;;;11.53;6.58;;;17.00;80.40;;;;;;1872054;76;21530;-57
2022/10/16 10:50:19;;;;;;;7.95;6.15;;;17.10;80.50;;;;;;1872642;76;21480;-56
2022/10/16 10:53:13;;;;;;;6.95;5.55;;;17.10;80.40;;;;;;1871941;76;21483;-57
2022/10/16 10:55:55;;;;;;;7.83;5.67;;;17.10;80.10;;;;;;1872997;77;21211;-58
2022/10/16 10:59:00;;;;;;;8.25;5.05;;;17.10;80.20;;;;;;1840891;76;21021;-58
2022/10/16 11:01:47;;;;;;;6.62;4.42;;;17.20;80.30;;;;;;1872890;77;21025;-56
2022/10/16 11:04:19;;;;;;;11.57;7.30;;;17.20;80.10;;;;;;1872920;77;21054;-58
2022/10/16 11:06:54;;;;;;;7.70;6.62;;;17.20;80.00;;;;;;1872099;76;21053;-58
2022/10/16 11:09:29;;;;;;;9.65;6.78;;;17.20;80.20;;;;;;1857370;77;21491;-58
2022/10/16 11:12:09;;;;;;;8.88;6.55;;;17.20;80.60;;;;;;1872881;76;21092;-58
2022/10/16 11:14:48;;;;;;;18.00;7.20;;;17.20;80.40;;;;;;1872932;77;21050;-58
2022/10/16 11:17:24;;;;;;;10.98;6.20;;;17.20;80.20;;;;;;1872802;76;21057;-58
2022/10/16 11:19:55;;;;;;;9.38;6.47;;;17.20;80.10;;;;;;1872760;77;21150;-58
2022/10/16 11:22:36;;;;;;;13.22;6.50;;;17.20;80.10;;;;;;1872788;76;21496;-58
2022/10/16 11:25:26;;;;;;;8.05;7.20;;;17.20;80.10;;;;;;1872445;76;21127;-57
2022/10/16 11:28:20;;;;;;;8.25;7.45;;;17.30;80.20;;;;;;1872884;77;21013;-58
2022/10/16 11:31:16;;;;;;;8.60;6.62;;;17.30;80.10;;;;;;1872803;76;21054;-58
2022/10/16 11:33:54;;;;;;;8.08;5.28;;;17.20;80.20;;;;;;1872907;76;20990;-57
2022/10/16 11:36:26;;;;;;;7.40;5.97;;;17.20;80.10;;;;;;1872528;76;21089;-57
2022/10/16 11:39:06;;;;;;;8.55;6.65;;;17.20;80.00;;;;;;1869966;76;21468;-57
2022/10/16 11:41:44;;;;;;;10.10;6.08;;;17.20;80.20;;;;;;1872190;75;21512;-57
2022/10/16 11:44:25;;;;;;;8.58;6.53;;;17.20;80.40;;;;;;1872996;77;21104;-57
2022/10/16 11:47:06;;;;;;;6.83;4.95;;;17.20;80.40;;;;;;1872954;77;21041;-57
2022/10/16 11:49:38;;;;;;;7.60;5.05;;;17.20;80.30;;;;;;1872952;77;21042;-57
2022/10/16 11:52:26;;;;;;;13.32;6.60;;;17.20;80.30;;;;;;1872873;77;21001;-57
2022/10/16 11:55:31;;;;;;;7.17;5.50;;;17.20;80.40;;;;;;1872830;77;21086;-55
2022/10/16 11:58:03;;;;;;;10.35;6.83;;;17.20;81.20;;;;;;1872536;76;21002;-57
2022/10/16 12:00:59;;;;;;;11.08;7.37;;;17.20;80.60;;;;;;1872957;76;21095;-57
2022/10/16 12:03:37;;;;;;;13.00;8.30;;;17.20;80.60;;;;;;1872840;76;21038;-56
2022/10/16 12:06:19;;;;;;;15.50;9.75;;;17.20;81.20;;;;;;1872628;76;21093;-56
2022/10/16 12:08:48;;;;;;;12.80;9.03;;;17.20;80.60;;;;;;1870982;77;21057;-57
2022/10/16 12:11:33;;;;;;;10.72;8.35;;;17.20;80.60;;;;;;1872940;77;21029;-56
2022/10/16 12:14:16;;;;;;;13.28;8.85;;;17.30;80.60;;;;;;1872938;77;21099;-57
2022/10/16 12:17:14;;;;;;;20.77;10.65;;;17.30;80.40;;;;;;1873002;77;21526;-57
2022/10/16 12:19:44;;;;;;;23.00;11.15;;;17.30;80.40;;;;;;1872973;76;21089;-56
2022/10/16 12:22:19;;;;;;;18.65;11.85;;;17.30;80.50;;;;;;1872918;76;21081;-57
2022/10/16 12:24:48;;;;;;;;;;;17.30;80.40;;;;;;1875721;76;21107;-57
2022/10/16 12:27:32;;;;;;;9.95;5.58;;;17.30;80.40;;;;;;1872542;76;20136;-56
2022/10/16 12:30:05;;;;;;;14.53;10.20;;;17.30;80.10;;;;;;1872732;77;21065;-56
2022/10/16 12:32:43;;;;;;;15.40;10.35;;;17.30;80.20;;;;;;1872783;76;21089;-57
2022/10/16 12:35:17;;;;;;;13.35;8.25;;;17.30;80.30;;;;;;1871606;76;21541;-56
2022/10/16 12:37:46;;;;;;;11.53;6.70;;;17.30;80.30;;;;;;1871771;76;21154;-56
2022/10/16 12:40:24;;;;;;;7.10;5.58;;;17.40;80.30;;;;;;1872781;77;21121;-57
2022/10/16 12:42:53;;;;;;;11.63;7.50;;;17.30;80.10;;;;;;1872833;75;21081;-57
2022/10/16 12:45:28;;;;;;;16.32;9.15;;;17.30;80.20;;;;;;1872719;77;21040;-57
2022/10/16 12:47:57;;;;;;;15.20;9.75;;;17.30;80.40;;;;;;1872973;77;21111;-56
2022/10/16 12:50:35;;;;;;;26.87;16.32;;;17.30;80.50;;;;;;1872754;77;21033;-56
2022/10/16 12:53:07;;;;;;;25.52;15.93;;;17.30;80.50;;;;;;1872869;77;21522;-56
2022/10/16 12:55:38;;;;;;;25.20;15.53;;;17.30;80.20;;;;;;1870213;77;21041;-56
2022/10/16 12:58:16;;;;;;;22.80;13.35;;;17.30;80.20;;;;;;1870341;77;21049;-57
2022/10/16 13:00:48;;;;;;;16.20;11.80;;;17.30;80.10;;;;;;1872024;77;21037;-56
2022/10/16 13:03:34;;;;;;;24.50;16.40;;;17.30;80.10;;;;;;1872349;77;20998;-57
2022/10/16 13:06:18;;;;;;;22.90;14.50;;;17.30;80.10;;;;;;1872684;77;21159;-56
2022/10/16 13:09:19;;;;;;;23.30;12.73;;;17.20;80.00;;;;;;1872857;75;21477;-56
2022/10/16 13:12:00;;;;;;;28.77;16.25;;;17.20;79.90;;;;;;1872888;77;21127;-56
2022/10/16 13:14:32;;;;;;;55.48;30.02;;;17.20;79.70;;;;;;1872725;77;21127;-57